createdAt,value
2023-04-21T18:49:40.678Z,5.68
2023-04-21T18:52:07.507Z,6.28
2023-04-21T18:54:34.557Z,6.80
2023-04-21T18:57:02.169Z,7.20
2023-04-21T18:59:28.682Z,8.98
2023-04-21T19:01:55.437Z,8.10
2023-04-21T19:04:22.302Z,7.28
2023-04-21T19:06:49.312Z,8.05
2023-04-21T19:09:16.189Z,7.15
2023-04-21T19:11:42.949Z,7.80
2023-04-21T19:14:09.611Z,7.22
2023-04-21T19:16:36.393Z,7.00
2023-04-21T19:19:04.700Z,7.63
2023-04-21T19:21:31.266Z,7.07
2023-04-21T19:23:58.174Z,7.43
2023-04-21T19:26:25.160Z,7.68
2023-04-21T19:28:51.814Z,7.30
2023-04-21T19:31:21.489Z,8.63
2023-04-21T19:33:49.367Z,7.22
2023-04-21T19:36:16.111Z,7.63
2023-04-21T19:38:43.292Z,7.93
2023-04-21T19:41:10.005Z,7.03
2023-04-21T19:43:36.642Z,7.15
2023-04-21T19:46:03.847Z,7.50
2023-04-21T19:48:31.199Z,11.80
2023-04-21T19:50:57.774Z,13.98
2023-04-21T19:53:24.287Z,12.30
2023-04-21T19:55:52.498Z,8.98
2023-04-21T19:58:32.001Z,7.60
2023-04-21T20:01:05.366Z,7.38
2023-04-21T20:03:32.639Z,8.20
2023-04-21T20:05:59.439Z,8.38
2023-04-21T20:08:26.008Z,7.97
2023-04-21T20:10:52.515Z,8.48
2023-04-21T20:13:19.018Z,8.88
2023-04-21T20:15:45.926Z,8.30
2023-04-21T20:18:12.883Z,7.93
2023-04-21T20:20:40.611Z,8.85
2023-04-21T20:23:07.238Z,8.13
2023-04-21T20:25:33.839Z,7.43
2023-04-21T20:28:00.732Z,8.43
2023-04-21T20:30:27.449Z,8.80
2023-04-21T20:32:54.080Z,8.60
2023-04-21T20:35:20.861Z,8.07
2023-04-21T20:37:48.733Z,9.35
2023-04-21T20:40:15.769Z,9.10
2023-04-21T20:42:44.819Z,9.30
2023-04-21T20:45:12.748Z,10.02
2023-04-21T20:47:39.717Z,9.25
2023-04-21T20:50:07.141Z,9.75
2023-04-21T20:52:34.027Z,9.57
2023-04-21T20:55:00.816Z,9.05
2023-04-21T20:57:27.601Z,10.30
2023-04-21T20:59:54.432Z,8.65
2023-04-21T21:02:21.229Z,9.18
2023-04-21T21:04:47.955Z,9.55
2023-04-21T21:07:15.030Z,8.82
2023-04-21T21:09:41.756Z,9.68
2023-04-21T21:12:08.417Z,9.23
2023-04-21T21:14:35.314Z,9.32
2023-04-21T21:17:02.873Z,9.70
2023-04-21T21:19:29.983Z,9.70
2023-04-21T21:21:56.628Z,9.88
2023-04-21T21:24:24.768Z,10.05
2023-04-21T21:26:51.324Z,11.25
2023-04-21T21:29:18.260Z,10.40
2023-04-21T21:31:44.842Z,10.23
2023-04-21T21:34:11.423Z,9.90
2023-04-21T21:36:37.934Z,9.45
2023-04-21T21:39:06.910Z,10.27
2023-04-21T21:41:34.909Z,11.93
2023-04-21T21:44:01.626Z,9.70
2023-04-21T21:46:28.295Z,9.43
2023-04-21T21:48:54.982Z,10.57
2023-04-21T21:51:21.556Z,12.52
2023-04-21T21:53:48.070Z,10.90
2023-04-21T21:56:14.690Z,10.27
2023-04-21T21:58:41.487Z,10.30
2023-04-21T22:01:08.627Z,9.52
2023-04-21T22:03:36.184Z,9.45
2023-04-21T22:06:03.355Z,9.70
2023-04-21T22:08:30.024Z,10.23
2023-04-21T22:10:57.053Z,10.57
2023-04-21T22:13:23.609Z,12.95
2023-04-21T22:15:50.274Z,15.02
2023-04-21T22:18:18.454Z,18.50
2023-04-21T22:20:45.177Z,17.17
2023-04-21T22:23:12.335Z,13.77
2023-04-21T22:25:38.894Z,15.32
2023-04-21T22:28:05.558Z,14.38
2023-04-21T22:30:32.313Z,12.27
2023-04-21T22:32:58.922Z,11.10
2023-04-21T22:35:25.678Z,9.82
2023-04-21T22:37:52.210Z,9.95
2023-04-21T22:40:18.771Z,10.40
2023-04-21T22:42:45.414Z,10.38
2023-04-21T22:45:12.172Z,10.05
2023-04-21T22:47:38.808Z,10.27
2023-04-21T22:50:06.037Z,16.75
2023-04-21T22:52:32.926Z,18.17
2023-04-21T22:54:59.453Z,12.65
2023-04-21T22:57:26.833Z,11.65
2023-04-21T22:59:53.619Z,11.13
2023-04-21T23:02:20.218Z,11.38
2023-04-21T23:04:46.882Z,11.13
2023-04-21T23:07:13.631Z,10.85
2023-04-21T23:09:40.458Z,10.75
2023-04-21T23:12:08.135Z,10.45
2023-04-21T23:14:34.815Z,9.10
2023-04-21T23:17:01.388Z,9.38
2023-04-21T23:19:27.946Z,12.02
2023-04-21T23:21:54.606Z,11.43
2023-04-21T23:24:21.414Z,13.30
2023-04-21T23:26:48.100Z,15.80
2023-04-21T23:29:14.649Z,14.48
2023-04-21T23:31:41.415Z,11.55
2023-04-21T23:34:08.206Z,12.48
2023-04-21T23:36:34.836Z,13.70
2023-04-21T23:39:01.546Z,13.68
2023-04-21T23:41:28.219Z,16.50
2023-04-21T23:43:54.882Z,19.83
2023-04-21T23:46:21.429Z,20.42
2023-04-21T23:48:48.080Z,16.83
2023-04-21T23:51:15.617Z,14.65
2023-04-21T23:53:42.360Z,13.73
2023-04-21T23:56:09.018Z,13.70
2023-04-21T23:58:35.700Z,13.35
